Time;durP1;ratioP1;P1;durP2;ratioP2;P2;SDS_P1;SDS_P2;PMS_P1;PMS_P2;Temp;Humidity;BMP_temperature;BMP_pressure;BME280_temperature;BME280_humidity;BME280_pressure;Samples;Min_cycle;Max_cycle;Signal;HPM_P1;HPM_P2
2021/03/24 00:01:29;;;;;;;28.70;15.98;;;;;;;;;;5032303;28;20500;-74
2021/03/24 00:03:55;;;;;;;23.55;14.27;;;;;;;;;;5014862;28;20080;-74
2021/03/24 00:06:22;;;;;;;25.70;13.88;;;;;;;;;;4998872;28;20053;-73
2021/03/24 00:08:48;;;;;;;27.85;14.60;;;;;;;;;;5014901;28;20456;-73
2021/03/24 00:11:14;;;;;;;26.13;14.15;;;;;;;;;;5014956;28;20053;-74
2021/03/24 00:13:42;;;;;;;23.90;14.18;;;;;;;;;;4982275;28;20057;-73
2021/03/24 00:16:09;;;;;;;29.92;14.52;;;;;;;;;;4997735;28;20057;-74
2021/03/24 00:18:36;;;;;;;25.75;14.25;;;;;;;;;;4998535;28;20081;-74
2021/03/24 00:21:02;;;;;;;30.10;15.25;;;;;;;;;;4998346;28;20049;-73
2021/03/24 00:23:28;;;;;;;27.40;14.65;;;;;;;;;;5024072;28;20081;-74
2021/03/24 00:25:55;;;;;;;30.70;14.95;;;;;;;;;;4977964;28;20053;-73
2021/03/24 00:28:21;;;;;;;25.92;14.38;;;;;;;;;;4994859;28;20081;-73
2021/03/24 00:30:49;;;;;;;30.13;15.32;;;;;;;;;;4994676;28;20472;-73
2021/03/24 00:33:17;;;;;;;27.58;14.15;;;;;;;;;;4994878;28;20054;-74
2021/03/24 00:35:44;;;;;;;28.45;15.55;;;;;;;;;;5004164;28;20053;-74
2021/03/24 00:38:11;;;;;;;30.27;16.35;;;;;;;;;;5014371;28;20080;-74
2021/03/24 00:40:40;;;;;;;29.95;15.00;;;;;;;;;;4998204;28;20100;-73
2021/03/24 00:43:07;;;;;;;25.50;14.68;;;;;;;;;;4998399;28;20107;-73
2021/03/24 00:45:35;;;;;;;26.35;15.23;;;;;;;;;;4997578;28;20140;-73
2021/03/24 00:48:02;;;;;;;26.13;14.07;;;;;;;;;;4997655;28;20050;-74
2021/03/24 00:50:31;;;;;;;25.90;14.45;;;;;;;;;;5014206;28;20060;-73
2021/03/24 00:52:57;;;;;;;25.50;14.30;;;;;;;;;;4998138;28;20107;-73
2021/03/24 00:55:23;;;;;;;26.33;14.18;;;;;;;;;;5031191;28;20463;-73
2021/03/24 00:57:49;;;;;;;28.65;15.77;;;;;;;;;;4997659;28;20053;-74
2021/03/24 01:00:19;;;;;;;26.17;14.68;;;;;;;;;;4997873;28;20042;-74
2021/03/24 01:02:45;;;;;;;28.42;14.20;;;;;;;;;;5011645;28;20421;-74
2021/03/24 01:05:14;;;;;;;25.17;13.73;;;;;;;;;;4962084;28;20065;-73
2021/03/24 01:07:41;;;;;;;25.30;13.65;;;;;;;;;;4994272;28;20111;-73
2021/03/24 01:10:12;;;;;;;27.05;13.98;;;;;;;;;;4979551;28;20096;-73
2021/03/24 01:12:38;;;;;;;29.45;14.32;;;;;;;;;;5014110;28;20463;-73
2021/03/24 01:15:04;;;;;;;23.13;12.93;;;;;;;;;;5013748;28;20072;-75
2021/03/24 01:17:30;;;;;;;27.67;14.18;;;;;;;;;;5013615;28;20057;-75
2021/03/24 01:19:57;;;;;;;26.45;13.10;;;;;;;;;;5020425;28;20417;-73
2021/03/24 01:22:23;;;;;;;25.75;14.60;;;;;;;;;;4994176;28;20050;-74
2021/03/24 01:24:49;;;;;;;27.17;14.63;;;;;;;;;;4994333;28;20054;-74
2021/03/24 01:27:15;;;;;;;26.13;14.18;;;;;;;;;;4993440;28;20523;-74
2021/03/24 01:29:41;;;;;;;26.08;13.60;;;;;;;;;;4985958;28;20049;-73
2021/03/24 01:32:07;;;;;;;29.75;15.30;;;;;;;;;;4981443;28;20049;-73
2021/03/24 01:34:33;;;;;;;24.17;13.70;;;;;;;;;;5016411;28;20057;-73
2021/03/24 01:37:00;;;;;;;30.48;15.82;;;;;;;;;;5034926;28;20107;-73
2021/03/24 01:39:26;;;;;;;28.92;14.32;;;;;;;;;;5002967;28;20076;-73
2021/03/24 01:41:52;;;;;;;31.73;14.68;;;;;;;;;;5006931;28;20105;-72
2021/03/24 01:44:18;;;;;;;30.77;14.85;;;;;;;;;;5015303;28;20034;-76
2021/03/24 01:46:46;;;;;;;30.35;14.95;;;;;;;;;;5023541;28;20029;-76
2021/03/24 01:49:26;;;;;;;28.00;15.90;;;;;;;;;;5008249;28;20030;-77
2021/03/24 01:52:06;;;;;;;32.47;15.70;;;;;;;;;;5007931;28;20034;-77
2021/03/24 01:54:37;;;;;;;28.10;15.82;;;;;;;;;;5035148;28;20062;-78
2021/03/24 01:57:07;;;;;;;33.38;16.40;;;;;;;;;;5019071;28;20034;-77
2021/03/24 01:59:33;;;;;;;26.13;14.68;;;;;;;;;;5027566;28;20058;-77
2021/03/24 02:01:59;;;;;;;31.45;16.65;;;;;;;;;;5027042;28;20037;-78
2021/03/24 02:04:25;;;;;;;33.33;16.58;;;;;;;;;;5027319;28;20033;-78
2021/03/24 02:06:57;;;;;;;25.08;14.07;;;;;;;;;;5026439;28;20060;-78
2021/03/24 02:09:49;;;;;;;29.25;14.75;;;;;;;;;;5031229;28;20089;-77
2021/03/24 02:12:25;;;;;;;35.03;15.18;;;;;;;;;;4994779;28;20038;-78
2021/03/24 02:14:56;;;;;;;26.63;14.95;;;;;;;;;;5041295;28;20072;-74
2021/03/24 02:17:27;;;;;;;30.38;14.70;;;;;;;;;;4992315;28;20061;-77
2021/03/24 02:19:57;;;;;;;31.30;15.18;;;;;;;;;;5008781;28;20040;-76
2021/03/24 02:22:25;;;;;;;28.98;15.10;;;;;;;;;;5022819;28;20046;-74
2021/03/24 02:25:25;;;;;;;32.47;14.60;;;;;;;;;;5007620;28;20056;-76
2021/03/24 02:27:53;;;;;;;28.45;15.13;;;;;;;;;;5011306;28;20057;-75
2021/03/24 02:30:41;;;;;;;26.50;14.15;;;;;;;;;;5022720;28;20033;-74
2021/03/24 02:33:18;;;;;;;26.98;14.50;;;;;;;;;;5043470;28;20040;-77
2021/03/24 02:35:52;;;;;;;29.63;14.73;;;;;;;;;;5042935;28;20029;-76
2021/03/24 02:38:20;;;;;;;26.67;14.30;;;;;;;;;;5027309;28;20079;-76
2021/03/24 02:40:46;;;;;;;27.77;14.35;;;;;;;;;;5043519;28;20044;-77
2021/03/24 02:43:13;;;;;;;31.83;16.08;;;;;;;;;;5026574;28;20037;-77
2021/03/24 02:45:42;;;;;;;27.85;14.02;;;;;;;;;;5024196;28;20064;-76
2021/03/24 02:48:13;;;;;;;26.50;15.48;;;;;;;;;;5026811;28;20042;-77
2021/03/24 02:50:42;;;;;;;25.87;14.83;;;;;;;;;;5026977;28;20033;-76
2021/03/24 02:53:08;;;;;;;28.10;14.77;;;;;;;;;;5006861;28;20045;-73
2021/03/24 02:55:36;;;;;;;28.35;15.27;;;;;;;;;;4984774;28;20575;-73
2021/03/24 02:58:02;;;;;;;32.53;15.77;;;;;;;;;;4998685;28;20100;-74
2021/03/24 03:00:29;;;;;;;32.22;15.10;;;;;;;;;;5018385;28;20510;-74
2021/03/24 03:03:00;;;;;;;28.63;14.93;;;;;;;;;;5000502;28;20045;-74
2021/03/24 03:05:32;;;;;;;34.22;16.45;;;;;;;;;;5017156;28;20061;-73
2021/03/24 03:08:05;;;;;;;29.38;15.93;;;;;;;;;;5000704;28;20122;-74
2021/03/24 03:10:54;;;;;;;31.90;16.08;;;;;;;;;;5001333;28;20049;-74
2021/03/24 03:13:34;;;;;;;29.00;16.45;;;;;;;;;;5034055;28;20104;-74
2021/03/24 03:16:20;;;;;;;29.58;14.40;;;;;;;;;;5001082;28;20053;-74
2021/03/24 03:19:08;;;;;;;32.03;15.88;;;;;;;;;;4999429;28;20061;-74
2021/03/24 03:21:40;;;;;;;32.30;15.32;;;;;;;;;;5033504;28;20542;-74
2021/03/24 03:24:24;;;;;;;36.13;16.58;;;;;;;;;;5019107;28;20049;-75
2021/03/24 03:26:53;;;;;;;33.92;16.60;;;;;;;;;;4998611;28;20049;-75
2021/03/24 03:29:19;;;;;;;34.40;17.13;;;;;;;;;;4980124;28;20050;-74
2021/03/24 03:31:48;;;;;;;32.22;15.52;;;;;;;;;;4995922;28;20054;-74
2021/03/24 03:34:16;;;;;;;32.55;16.45;;;;;;;;;;4964392;28;20050;-74
2021/03/24 03:36:48;;;;;;;33.60;16.10;;;;;;;;;;4979452;28;20050;-74
2021/03/24 03:39:18;;;;;;;31.33;15.57;;;;;;;;;;5015062;28;20045;-74
2021/03/24 03:41:44;;;;;;;33.75;16.27;;;;;;;;;;5015545;28;20045;-73
2021/03/24 03:44:11;;;;;;;29.15;15.75;;;;;;;;;;4999122;28;20496;-74
2021/03/24 03:46:39;;;;;;;33.75;16.45;;;;;;;;;;5033828;23;20506;-72
2021/03/24 03:49:05;;;;;;;31.75;16.60;;;;;;;;;;5007422;28;20041;-73
2021/03/24 03:51:44;;;;;;;30.15;14.82;;;;;;;;;;5026690;28;20392;-73
2021/03/24 03:54:17;;;;;;;33.75;16.65;;;;;;;;;;5011461;28;20050;-72
2021/03/24 03:56:57;;;;;;;31.70;16.50;;;;;;;;;;5010462;28;20503;-73
2021/03/24 03:59:26;;;;;;;34.38;16.83;;;;;;;;;;5020298;28;20100;-72
2021/03/24 04:01:57;;;;;;;33.08;17.17;;;;;;;;;;5011038;28;20157;-72
2021/03/24 04:04:28;;;;;;;33.25;17.00;;;;;;;;;;5027618;28;20049;-73
2021/03/24 04:07:01;;;;;;;31.20;15.88;;;;;;;;;;5008236;28;20080;-73
2021/03/24 04:09:28;;;;;;;36.28;15.98;;;;;;;;;;4995117;28;20046;-72
2021/03/24 04:11:54;;;;;;;34.30;17.25;;;;;;;;;;5010694;28;20493;-73
2021/03/24 04:14:26;;;;;;;36.53;16.40;;;;;;;;;;5010809;28;20100;-73
2021/03/24 04:16:52;;;;;;;32.90;17.20;;;;;;;;;;4998629;28;20104;-72
2021/03/24 04:19:22;;;;;;;39.38;18.95;;;;;;;;;;5015288;28;20100;-73
2021/03/24 04:21:49;;;;;;;33.17;17.05;;;;;;;;;;5014450;28;20045;-73
2021/03/24 04:24:29;;;;;;;37.47;16.83;;;;;;;;;;5002147;28;20065;-73
2021/03/24 04:26:57;;;;;;;37.42;18.50;;;;;;;;;;4998072;28;20061;-73
2021/03/24 04:29:41;;;;;;;34.33;15.70;;;;;;;;;;4998320;28;20115;-72
2021/03/24 04:32:07;;;;;;;32.38;17.35;;;;;;;;;;5014364;28;20132;-71
2021/03/24 04:34:34;;;;;;;33.25;17.48;;;;;;;;;;5014423;28;20049;-73
2021/03/24 04:37:25;;;;;;;37.70;19.02;;;;;;;;;;5015736;28;20076;-70
2021/03/24 04:40:04;;;;;;;39.15;17.08;;;;;;;;;;5033014;28;20061;-74
2021/03/24 04:42:41;;;;;;;32.15;16.55;;;;;;;;;;5015909;28;20053;-74
2021/03/24 04:45:58;;;;;;;37.33;17.65;;;;;;;;;;5017270;28;20111;-73
2021/03/24 04:48:48;;;;;;;39.00;17.98;;;;;;;;;;4916369;29;20515;-73
2021/03/24 04:51:20;;;;;;;38.92;19.80;;;;;;;;;;4918348;29;20048;-73
2021/03/24 04:53:51;;;;;;;36.45;17.88;;;;;;;;;;4980909;28;20420;-73
2021/03/24 04:56:17;;;;;;;36.67;16.83;;;;;;;;;;4995758;28;20080;-73
2021/03/24 04:58:46;;;;;;;35.58;17.60;;;;;;;;;;4994172;28;20104;-72
2021/03/24 05:01:15;;;;;;;36.90;18.38;;;;;;;;;;4994519;28;20441;-73
2021/03/24 05:03:43;;;;;;;39.53;18.58;;;;;;;;;;5010447;28;20058;-73
2021/03/24 05:06:24;;;;;;;39.22;18.80;;;;;;;;;;4993591;28;20053;-73
2021/03/24 05:08:50;;;;;;;37.65;19.52;;;;;;;;;;5011570;28;20073;-72
2021/03/24 05:11:21;;;;;;;44.15;19.00;;;;;;;;;;4998667;28;20069;-72
2021/03/24 05:13:57;;;;;;;39.05;17.80;;;;;;;;;;5014405;28;20050;-72
2021/03/24 05:16:35;;;;;;;39.67;19.67;;;;;;;;;;4997595;28;20062;-72
2021/03/24 05:19:02;;;;;;;39.60;18.58;;;;;;;;;;4998513;28;20054;-73
2021/03/24 05:21:46;;;;;;;34.10;18.40;;;;;;;;;;5015826;28;20464;-73
2021/03/24 05:24:27;;;;;;;41.30;18.52;;;;;;;;;;5015647;28;20100;-72
2021/03/24 05:27:02;;;;;;;41.58;18.65;;;;;;;;;;4997217;28;20068;-73
2021/03/24 05:29:32;;;;;;;40.42;17.35;;;;;;;;;;4998130;28;20053;-73
2021/03/24 05:31:58;;;;;;;36.00;16.80;;;;;;;;;;4998026;28;20065;-72
2021/03/24 05:34:29;;;;;;;35.45;17.55;;;;;;;;;;4997940;28;20416;-73
2021/03/24 05:36:55;;;;;;;42.00;18.50;;;;;;;;;;5013575;28;20459;-72
2021/03/24 05:39:25;;;;;;;34.38;16.27;;;;;;;;;;5015436;28;20053;-72
2021/03/24 05:42:33;;;;;;;40.45;17.88;;;;;;;;;;5030728;28;20126;-73
2021/03/24 05:45:25;;;;;;;37.83;19.25;;;;;;;;;;5013695;28;20042;-72
2021/03/24 05:48:14;;;;;;;32.40;17.08;;;;;;;;;;5019908;28;20137;-72
2021/03/24 05:50:44;;;;;;;33.80;17.38;;;;;;;;;;5006739;28;20056;-73
2021/03/24 05:53:31;;;;;;;34.85;16.38;;;;;;;;;;5005775;28;20049;-73
2021/03/24 05:56:18;;;;;;;36.10;18.27;;;;;;;;;;5031892;28;20526;-73
2021/03/24 05:59:11;;;;;;;33.63;17.20;;;;;;;;;;5016406;28;20053;-73
2021/03/24 06:01:42;;;;;;;41.20;18.30;;;;;;;;;;5002603;28;20115;-71
2021/03/24 06:04:39;;;;;;;39.25;18.58;;;;;;;;;;5033661;28;20053;-74
2021/03/24 06:07:34;;;;;;;40.58;19.50;;;;;;;;;;5016479;28;20049;-75
2021/03/24 06:10:03;;;;;;;36.92;18.65;;;;;;;;;;5031560;28;20045;-75
2021/03/24 06:12:47;;;;;;;38.47;19.55;;;;;;;;;;5016868;28;20053;-73
2021/03/24 06:15:26;;;;;;;33.90;19.05;;;;;;;;;;5033733;28;20049;-73
2021/03/24 06:18:01;;;;;;;39.63;20.23;;;;;;;;;;5034326;28;20053;-75
2021/03/24 06:20:44;;;;;;;32.63;18.20;;;;;;;;;;5030445;28;20455;-70
2021/03/24 06:23:32;;;;;;;33.08;17.00;;;;;;;;;;5012149;28;20734;-72
2021/03/24 06:26:01;;;;;;;33.63;16.65;;;;;;;;;;5023730;28;20099;-73
2021/03/24 06:28:49;;;;;;;33.95;18.35;;;;;;;;;;5016649;28;20050;-73
2021/03/24 06:31:37;;;;;;;38.55;19.00;;;;;;;;;;4997228;28;20054;-73
2021/03/24 06:34:15;;;;;;;36.88;19.42;;;;;;;;;;5016130;28;20429;-73
2021/03/24 06:36:47;;;;;;;34.10;18.58;;;;;;;;;;5014663;28;20345;-73
2021/03/24 06:39:51;;;;;;;36.17;20.30;;;;;;;;;;5017413;28;20054;-73
2021/03/24 06:42:36;;;;;;;30.17;17.52;;;;;;;;;;4995858;28;20099;-74
2021/03/24 06:45:02;;;;;;;40.83;19.35;;;;;;;;;;4997641;28;20054;-73
2021/03/24 06:47:46;;;;;;;37.35;19.67;;;;;;;;;;5013926;28;20050;-73
2021/03/24 06:50:35;;;;;;;30.38;18.05;;;;;;;;;;5006787;28;20045;-73
2021/03/24 06:53:20;;;;;;;33.88;19.38;;;;;;;;;;5033347;28;20103;-73
2021/03/24 06:56:04;;;;;;;32.20;17.90;;;;;;;;;;5018411;28;20443;-71
2021/03/24 06:58:49;;;;;;;35.70;18.60;;;;;;;;;;5034517;28;20053;-73
2021/03/24 07:01:50;;;;;;;35.35;18.48;;;;;;;;;;5042703;28;20186;-70
2021/03/24 07:04:47;;;;;;;37.22;19.02;;;;;;;;;;5030017;28;20045;-70
2021/03/24 07:07:39;;;;;;;33.50;19.02;;;;;;;;;;5028952;28;20573;-71
2021/03/24 07:10:24;;;;;;;33.47;18.40;;;;;;;;;;5017343;28;20130;-74
2021/03/24 07:13:09;;;;;;;35.33;18.95;;;;;;;;;;5034738;28;20507;-71
2021/03/24 07:15:49;;;;;;;32.53;18.45;;;;;;;;;;5019129;28;20103;-72
2021/03/24 07:18:40;;;;;;;34.85;18.38;;;;;;;;;;5029651;28;20045;-72
2021/03/24 07:21:29;;;;;;;32.95;17.88;;;;;;;;;;5024143;28;20164;-72
2021/03/24 07:24:04;;;;;;;30.95;18.17;;;;;;;;;;5030158;28;20049;-72
2021/03/24 07:26:42;;;;;;;30.05;17.08;;;;;;;;;;5019745;28;20112;-72
2021/03/24 07:29:30;;;;;;;33.22;17.35;;;;;;;;;;4994599;28;20053;-72
2021/03/24 07:32:10;;;;;;;31.23;16.77;;;;;;;;;;4993096;28;20058;-72
2021/03/24 07:34:56;;;;;;;30.10;17.40;;;;;;;;;;5008864;28;20045;-72
2021/03/24 07:37:52;;;;;;;34.63;18.52;;;;;;;;;;5020736;28;20056;-72
2021/03/24 07:40:18;;;;;;;32.50;18.92;;;;;;;;;;5021763;28;20073;-72
2021/03/24 07:42:47;;;;;;;35.85;18.05;;;;;;;;;;5021867;28;20103;-72
2021/03/24 07:45:16;;;;;;;31.52;17.88;;;;;;;;;;4996627;28;20504;-72
2021/03/24 07:47:46;;;;;;;27.65;16.52;;;;;;;;;;5018609;28;20077;-73
2021/03/24 07:50:36;;;;;;;28.65;17.17;;;;;;;;;;5014878;28;20045;-74
2021/03/24 07:53:23;;;;;;;26.40;16.33;;;;;;;;;;5033057;28;20104;-73
2021/03/24 07:56:02;;;;;;;27.48;17.17;;;;;;;;;;5022895;28;20118;-71
2021/03/24 07:59:10;;;;;;;28.83;17.73;;;;;;;;;;4986777;28;20049;-74
2021/03/24 08:01:41;;;;;;;26.02;16.45;;;;;;;;;;4996461;28;20053;-72
2021/03/24 08:04:29;;;;;;;27.52;17.05;;;;;;;;;;5004173;28;20050;-71
2021/03/24 08:07:23;;;;;;;26.50;16.30;;;;;;;;;;5025963;28;20136;-72
2021/03/24 08:09:58;;;;;;;27.13;16.00;;;;;;;;;;5029880;28;20053;-72
2021/03/24 08:12:54;;;;;;;25.83;15.52;;;;;;;;;;5027192;28;20062;-72
2021/03/24 08:15:53;;;;;;;30.38;18.05;;;;;;;;;;5009924;28;20056;-71
2021/03/24 08:18:43;;;;;;;29.35;17.77;;;;;;;;;;5015680;28;20037;-71
2021/03/24 08:21:28;;;;;;;25.33;15.43;;;;;;;;;;4996508;28;20132;-71
2021/03/24 08:24:06;;;;;;;25.83;15.93;;;;;;;;;;5005696;28;20583;-71
2021/03/24 08:26:33;;;;;;;24.67;16.50;;;;;;;;;;5030630;28;20099;-71
2021/03/24 08:29:11;;;;;;;31.55;17.27;;;;;;;;;;5014573;28;20046;-71
2021/03/24 08:31:47;;;;;;;23.75;15.13;;;;;;;;;;5029845;28;20500;-71
2021/03/24 08:34:20;;;;;;;22.15;13.98;;;;;;;;;;5031300;28;20536;-71
2021/03/24 08:37:05;;;;;;;22.52;14.02;;;;;;;;;;5013303;28;20049;-71
2021/03/24 08:39:50;;;;;;;20.38;14.02;;;;;;;;;;5004813;28;20096;-71
2021/03/24 08:42:16;;;;;;;25.73;15.07;;;;;;;;;;5030930;28;20049;-71
2021/03/24 08:44:53;;;;;;;24.20;14.43;;;;;;;;;;5030926;28;20076;-71
2021/03/24 08:47:27;;;;;;;25.02;15.07;;;;;;;;;;4991677;28;20042;-71
2021/03/24 08:49:56;;;;;;;28.90;15.98;;;;;;;;;;4999845;28;20045;-71
2021/03/24 08:53:03;;;;;;;21.33;14.07;;;;;;;;;;4997926;28;20108;-71
2021/03/24 08:55:47;;;;;;;22.70;14.35;;;;;;;;;;4933453;29;20517;-71
2021/03/24 08:58:20;;;;;;;25.27;14.98;;;;;;;;;;5025322;28;20049;-71
2021/03/24 09:01:09;;;;;;;27.65;16.98;;;;;;;;;;5004775;28;20460;-71
2021/03/24 09:03:42;;;;;;;32.20;16.77;;;;;;;;;;5006447;28;20049;-71
2021/03/24 09:06:41;;;;;;;24.02;14.63;;;;;;;;;;5029939;28;20095;-71
2021/03/24 09:09:41;;;;;;;23.38;14.48;;;;;;;;;;5003778;28;20100;-71
2021/03/24 09:12:16;;;;;;;27.83;14.65;;;;;;;;;;5030384;28;20411;-71
2021/03/24 09:14:57;;;;;;;22.65;14.95;;;;;;;;;;5019840;28;20124;-71
2021/03/24 09:17:29;;;;;;;24.77;15.23;;;;;;;;;;5007723;28;20085;-71
2021/03/24 09:20:21;;;;;;;24.73;14.82;;;;;;;;;;4979817;28;20045;-71
2021/03/24 09:22:59;;;;;;;24.02;14.23;;;;;;;;;;5005225;28;20278;-71
2021/03/24 09:25:26;;;;;;;21.67;15.07;;;;;;;;;;5031444;28;20053;-71
2021/03/24 09:28:10;;;;;;;24.15;15.93;;;;;;;;;;4996596;28;20049;-71
2021/03/24 09:30:41;;;;;;;23.73;14.88;;;;;;;;;;5002753;28;20053;-71
2021/03/24 09:33:34;;;;;;;25.55;15.20;;;;;;;;;;5010362;28;20061;-71
2021/03/24 09:36:28;;;;;;;28.33;15.10;;;;;;;;;;5008614;28;20045;-71
2021/03/24 09:38:54;;;;;;;23.02;14.57;;;;;;;;;;5028205;28;20115;-71
2021/03/24 09:41:47;;;;;;;22.70;13.55;;;;;;;;;;4996381;28;20091;-71
2021/03/24 09:44:16;;;;;;;;;;;;;;;;;;5007004;28;20045;-71
2021/03/24 09:46:49;;;;;;;21.65;13.50;;;;;;;;;;5042143;23;19991;-73
2021/03/24 09:49:21;;;;;;;25.40;13.93;;;;;;;;;;5019587;28;20050;-73
2021/03/24 09:52:17;;;;;;;18.77;11.85;;;;;;;;;;5035941;28;20449;-73
2021/03/24 09:55:03;;;;;;;18.85;12.05;;;;;;;;;;5017618;28;20132;-73
2021/03/24 09:57:44;;;;;;;19.50;12.73;;;;;;;;;;5015727;28;20046;-73
2021/03/24 10:00:11;;;;;;;23.48;12.90;;;;;;;;;;5013751;28;20075;-73
2021/03/24 10:02:41;;;;;;;18.73;12.52;;;;;;;;;;5013600;28;20054;-73
2021/03/24 10:05:08;;;;;;;19.50;12.13;;;;;;;;;;5013931;28;20054;-73
2021/03/24 10:07:39;;;;;;;20.70;12.55;;;;;;;;;;5012783;28;20050;-73
2021/03/24 10:10:16;;;;;;;22.17;12.55;;;;;;;;;;5013698;28;20439;-73
2021/03/24 10:12:57;;;;;;;18.55;12.98;;;;;;;;;;4997868;28;20058;-73
2021/03/24 10:15:48;;;;;;;22.27;13.32;;;;;;;;;;4993230;28;20108;-73
2021/03/24 10:18:32;;;;;;;19.50;12.32;;;;;;;;;;4978216;28;20050;-73
2021/03/24 10:21:38;;;;;;;19.30;11.50;;;;;;;;;;4994909;28;20053;-73
2021/03/24 10:24:17;;;;;;;18.10;11.38;;;;;;;;;;4992401;28;20061;-73
2021/03/24 10:26:47;;;;;;;17.23;12.02;;;;;;;;;;4994152;28;20051;-73
2021/03/24 10:29:15;;;;;;;22.05;12.00;;;;;;;;;;4993625;28;20050;-73
2021/03/24 10:32:05;;;;;;;19.08;12.23;;;;;;;;;;4995987;28;20489;-72
2021/03/24 10:34:34;;;;;;;18.90;12.85;;;;;;;;;;5007487;28;20050;-72
2021/03/24 10:37:29;;;;;;;17.80;11.80;;;;;;;;;;5012644;28;20107;-72
2021/03/24 10:39:57;;;;;;;20.60;11.85;;;;;;;;;;5012897;28;20091;-72
2021/03/24 10:42:49;;;;;;;20.27;11.98;;;;;;;;;;5012970;28;20416;-73
2021/03/24 10:45:21;;;;;;;17.50;11.38;;;;;;;;;;5013017;28;20558;-72
2021/03/24 10:48:22;;;;;;;18.83;11.73;;;;;;;;;;5012718;28;20054;-72
2021/03/24 10:51:03;;;;;;;19.52;11.65;;;;;;;;;;5012586;28;20046;-72
2021/03/24 10:53:30;;;;;;;19.63;10.82;;;;;;;;;;4993657;28;20570;-72
2021/03/24 10:56:14;;;;;;;16.38;10.23;;;;;;;;;;5011256;28;20092;-72
2021/03/24 10:58:56;;;;;;;16.88;10.80;;;;;;;;;;5013691;28;20578;-72
2021/03/24 11:01:30;;;;;;;16.27;10.13;;;;;;;;;;5013072;28;20100;-72
2021/03/24 11:04:12;;;;;;;16.73;10.75;;;;;;;;;;5012698;28;20429;-72
2021/03/24 11:06:57;;;;;;;18.02;10.68;;;;;;;;;;5010600;28;20081;-72
2021/03/24 11:09:47;;;;;;;15.93;9.70;;;;;;;;;;5012687;28;20520;-73
2021/03/24 11:12:14;;;;;;;17.35;7.68;;;;;;;;;;5003184;28;20054;-77
2021/03/24 11:14:53;;;;;;;10.95;7.53;;;;;;;;;;5010537;28;20054;-75
2021/03/24 11:17:21;;;;;;;12.18;7.20;;;;;;;;;;5010747;28;20046;-73
2021/03/24 11:19:48;;;;;;;12.48;7.70;;;;;;;;;;5010841;28;20046;-74
2021/03/24 11:22:14;;;;;;;13.38;8.68;;;;;;;;;;4987172;28;20076;-75
2021/03/24 11:25:18;;;;;;;15.05;9.63;;;;;;;;;;5008101;28;20053;-76
2021/03/24 11:27:45;;;;;;;;;;;;;;;;;;5024502;28;20060;-72
2021/03/24 11:30:25;;;;;;;14.32;10.15;;;;;;;;;;5023121;28;19929;-75
2021/03/24 11:33:13;;;;;;;14.45;9.05;;;;;;;;;;5004859;28;20412;-75
2021/03/24 11:36:00;;;;;;;16.90;9.63;;;;;;;;;;5021850;28;20046;-73
2021/03/24 11:38:37;;;;;;;14.02;9.05;;;;;;;;;;5011692;28;20053;-76
2021/03/24 11:41:18;;;;;;;14.73;10.00;;;;;;;;;;5024900;28;20046;-75
2021/03/24 11:43:44;;;;;;;17.80;10.80;;;;;;;;;;5003087;28;20054;-73
2021/03/24 11:46:19;;;;;;;17.58;12.20;;;;;;;;;;5006407;28;20080;-73
2021/03/24 11:48:52;;;;;;;15.15;10.38;;;;;;;;;;5002933;28;20420;-77
2021/03/24 11:51:19;;;;;;;19.95;10.55;;;;;;;;;;5008367;28;20050;-76
2021/03/24 11:54:24;;;;;;;15.40;10.00;;;;;;;;;;5011088;28;20546;-77
2021/03/24 11:57:10;;;;;;;18.45;11.75;;;;;;;;;;5023610;28;20053;-74
2021/03/24 11:59:56;;;;;;;18.42;11.05;;;;;;;;;;5026448;28;20053;-77
2021/03/24 12:02:53;;;;;;;18.75;11.38;;;;;;;;;;5025758;28;20057;-75
2021/03/24 12:05:40;;;;;;;20.80;11.25;;;;;;;;;;5010994;28;20131;-75
2021/03/24 12:08:06;;;;;;;14.90;9.75;;;;;;;;;;5009569;28;20100;-75
2021/03/24 12:10:43;;;;;;;18.45;10.85;;;;;;;;;;5010857;28;20045;-73
2021/03/24 12:13:25;;;;;;;17.63;11.32;;;;;;;;;;5005370;28;20050;-75
2021/03/24 12:16:04;;;;;;;16.57;10.93;;;;;;;;;;5005035;28;20501;-74
2021/03/24 12:18:42;;;;;;;16.02;11.27;;;;;;;;;;4993736;28;20534;-75
2021/03/24 12:21:18;;;;;;;20.85;11.35;;;;;;;;;;5027917;28;20049;-76
2021/03/24 12:23:44;;;;;;;16.75;10.65;;;;;;;;;;5010350;28;20046;-75
2021/03/24 12:26:26;;;;;;;17.42;10.88;;;;;;;;;;5006528;28;20528;-73
2021/03/24 12:28:55;;;;;;;16.35;11.27;;;;;;;;;;5019318;28;20065;-72
2021/03/24 12:31:23;;;;;;;15.70;10.50;;;;;;;;;;5010402;28;20042;-72
2021/03/24 12:33:55;;;;;;;17.60;10.82;;;;;;;;;;5024623;28;20054;-74
2021/03/24 12:36:23;;;;;;;17.33;10.85;;;;;;;;;;5008676;28;20428;-74
2021/03/24 12:38:57;;;;;;;17.67;10.68;;;;;;;;;;5025149;28;20096;-74
2021/03/24 12:41:32;;;;;;;22.08;11.25;;;;;;;;;;5011412;28;20198;-77
2021/03/24 12:44:11;;;;;;;18.63;11.90;;;;;;;;;;4986818;28;20052;-74
2021/03/24 12:46:51;;;;;;;17.20;12.13;;;;;;;;;;5009047;28;20100;-75
2021/03/24 12:49:24;;;;;;;19.50;12.40;;;;;;;;;;5004632;28;20452;-74
2021/03/24 12:52:26;;;;;;;14.65;11.55;;;;;;;;;;5013338;28;20077;-73
2021/03/24 12:54:52;;;;;;;17.60;12.20;;;;;;;;;;4989024;28;20522;-74
2021/03/24 12:57:31;;;;;;;16.77;11.38;;;;;;;;;;4995477;28;20046;-74
2021/03/24 13:00:20;;;;;;;16.13;12.60;;;;;;;;;;5005269;28;20103;-74
2021/03/24 13:03:12;;;;;;;17.55;12.25;;;;;;;;;;5001929;28;20049;-73
2021/03/24 13:05:40;;;;;;;16.33;10.50;;;;;;;;;;5010488;28;20060;-75
2021/03/24 13:08:46;;;;;;;16.77;11.35;;;;;;;;;;4997145;28;20070;-71
2021/03/24 13:11:28;;;;;;;16.17;10.52;;;;;;;;;;4997271;28;20128;-72
2021/03/24 13:14:20;;;;;;;13.88;10.38;;;;;;;;;;5002321;28;20092;-74
2021/03/24 13:17:00;;;;;;;14.10;9.60;;;;;;;;;;5019151;28;20107;-78
2021/03/24 13:19:51;;;;;;;12.85;9.52;;;;;;;;;;5001889;28;20137;-73
2021/03/24 13:22:27;;;;;;;15.90;10.82;;;;;;;;;;4997518;28;20064;-74
2021/03/24 13:25:18;;;;;;;18.15;11.45;;;;;;;;;;5005018;28;20476;-74
2021/03/24 13:28:09;;;;;;;19.45;11.55;;;;;;;;;;4997572;28;20104;-74
2021/03/24 13:30:41;;;;;;;14.68;10.07;;;;;;;;;;5023606;28;20303;-74
2021/03/24 13:33:21;;;;;;;17.13;10.75;;;;;;;;;;5010138;28;20092;-74
2021/03/24 13:36:04;;;;;;;14.32;10.15;;;;;;;;;;5022719;28;20496;-74
2021/03/24 13:38:41;;;;;;;13.25;10.60;;;;;;;;;;5005862;28;20111;-74
2021/03/24 13:41:08;;;;;;;14.25;9.40;;;;;;;;;;5022133;28;20046;-73
2021/03/24 13:43:46;;;;;;;13.95;10.60;;;;;;;;;;5024692;28;20103;-75
2021/03/24 13:46:14;;;;;;;14.70;9.48;;;;;;;;;;5010128;28;20112;-73
2021/03/24 13:48:43;;;;;;;13.13;10.60;;;;;;;;;;5019007;28;20054;-76
2021/03/24 13:51:25;;;;;;;12.93;9.27;;;;;;;;;;5011495;28;20492;-74
2021/03/24 13:53:53;;;;;;;13.63;10.32;;;;;;;;;;5023539;28;20049;-77
2021/03/24 13:56:56;;;;;;;13.50;9.75;;;;;;;;;;5010258;28;20520;-77
2021/03/24 13:59:25;;;;;;;13.98;9.40;;;;;;;;;;5011124;28;20050;-73
2021/03/24 14:02:23;;;;;;;11.80;9.65;;;;;;;;;;5010968;28;20531;-73
2021/03/24 14:04:52;;;;;;;14.02;9.93;;;;;;;;;;4999976;28;20054;-72
2021/03/24 14:07:34;;;;;;;14.15;9.40;;;;;;;;;;5008328;28;20061;-72
2021/03/24 14:10:07;;;;;;;14.50;10.00;;;;;;;;;;5001378;28;20093;-73
2021/03/24 14:12:48;;;;;;;15.45;11.13;;;;;;;;;;5009887;28;20049;-73
2021/03/24 14:15:31;;;;;;;17.40;11.25;;;;;;;;;;5024566;28;20050;-75
2021/03/24 14:18:04;;;;;;;14.85;10.98;;;;;;;;;;5010284;28;20049;-74
2021/03/24 14:20:49;;;;;;;15.45;11.65;;;;;;;;;;5024961;28;20096;-73
2021/03/24 14:23:21;;;;;;;14.40;11.25;;;;;;;;;;5005036;28;20053;-75
2021/03/24 14:25:59;;;;;;;17.70;12.23;;;;;;;;;;5008060;28;20046;-75
2021/03/24 14:28:47;;;;;;;16.38;11.75;;;;;;;;;;5024478;28;20100;-73
2021/03/24 14:31:38;;;;;;;14.80;10.68;;;;;;;;;;5010483;28;20092;-73
2021/03/24 14:34:21;;;;;;;18.15;11.05;;;;;;;;;;5024014;28;20452;-74
2021/03/24 14:36:48;;;;;;;;;;;;;;;;;;5009075;28;20058;-74
2021/03/24 14:39:37;;;;;;;15.70;12.27;;;;;;;;;;5009967;28;19921;-73
2021/03/24 14:42:46;;;;;;;13.70;10.60;;;;;;;;;;5023729;28;20097;-73
2021/03/24 14:45:21;;;;;;;17.55;11.38;;;;;;;;;;5025372;28;20284;-73
2021/03/24 14:47:56;;;;;;;14.35;10.68;;;;;;;;;;5006481;28;20045;-73
2021/03/24 14:50:54;;;;;;;17.35;11.02;;;;;;;;;;5002050;28;20974;-72
2021/03/24 14:53:27;;;;;;;13.60;9.10;;;;;;;;;;5008168;28;20050;-73
2021/03/24 14:56:01;;;;;;;12.65;10.60;;;;;;;;;;5008053;28;20061;-72
2021/03/24 14:58:32;;;;;;;13.98;9.68;;;;;;;;;;5024467;28;20104;-72
2021/03/24 15:01:09;;;;;;;12.93;9.52;;;;;;;;;;5009540;28;20121;-74
2021/03/24 15:03:35;;;;;;;13.88;9.32;;;;;;;;;;5026003;28;20053;-74
2021/03/24 15:06:03;;;;;;;12.38;9.15;;;;;;;;;;5007534;28;20384;-72
2021/03/24 15:08:41;;;;;;;13.70;9.50;;;;;;;;;;5006564;28;20076;-72
2021/03/24 15:11:19;;;;;;;13.20;9.35;;;;;;;;;;5024300;28;20042;-72
2021/03/24 15:13:49;;;;;;;12.82;9.32;;;;;;;;;;5009050;28;20046;-78
2021/03/24 15:16:20;;;;;;;13.55;9.20;;;;;;;;;;5007952;28;20045;-77